createdAt,value
2024-05-09T00:06:31.529Z,84.5
2024-05-09T00:21:49.135Z,85.5
2024-05-09T00:37:11.817Z,86
2024-05-09T00:52:25.612Z,86
2024-05-09T01:07:59.212Z,86.5
2024-05-09T01:23:15.595Z,86.5
2024-05-09T01:38:20.773Z,88
2024-05-09T02:08:56.747Z,87
2024-05-09T02:24:15.977Z,88
2024-05-09T02:39:33.324Z,88
2024-05-09T02:54:51.911Z,88
2024-05-09T03:10:10.658Z,89
2024-05-09T03:25:28.480Z,89
2024-05-09T03:40:43.132Z,89
2024-05-09T03:55:46.208Z,88.5
2024-05-09T04:10:48.564Z,89.5
2024-05-09T04:25:51.347Z,89.5
2024-05-09T04:40:54.146Z,89
2024-05-09T04:55:56.933Z,89
2024-05-09T05:10:59.796Z,89.5
2024-05-09T05:26:02.589Z,88.5
2024-05-09T05:41:05.979Z,87
2024-05-09T05:56:08.309Z,84.5
2024-05-09T06:11:11.666Z,84
2024-05-09T06:26:13.736Z,82.5
2024-05-09T06:41:16.977Z,81
2024-05-09T07:11:22.651Z,77
2024-05-09T07:26:24.890Z,77
2024-05-09T07:41:27.579Z,74.5
2024-05-09T07:56:30.802Z,71.5
2024-05-09T08:56:41.657Z,61.5
2024-05-09T09:11:56.716Z,59
2024-05-09T09:27:09.684Z,56.5
2024-05-09T09:42:26.261Z,61
2024-05-09T09:57:43.468Z,58
2024-05-09T10:13:02.480Z,56.5
2024-05-09T10:28:20.530Z,48.5
2024-05-09T10:43:30.962Z,45
2024-05-09T10:58:48.551Z,43.5
2024-05-09T11:14:06.975Z,41
2024-05-09T11:29:32.426Z,41
2024-05-09T11:44:42.976Z,41.5
2024-05-09T12:00:17.407Z,44.5
2024-05-09T12:15:34.702Z,42
2024-05-09T12:30:45.595Z,37
2024-05-09T12:46:03.404Z,33.5
2024-05-09T13:01:30.470Z,32
2024-05-09T13:16:39.745Z,36
2024-05-09T13:31:50.359Z,43.5
2024-05-09T13:47:05.672Z,44
2024-05-09T14:02:09.728Z,43
2024-05-09T14:17:14.190Z,43.5
2024-05-09T14:47:16.474Z,42.5
2024-05-09T15:02:19.361Z,41
2024-05-09T15:17:22.090Z,41
2024-05-09T15:47:27.630Z,42
2024-05-09T16:02:42.846Z,42.5
2024-05-09T16:18:03.950Z,43.5
2024-05-09T16:33:20.215Z,43.5
2024-05-09T16:48:37.416Z,44.5
2024-05-09T17:03:55.370Z,43
2024-05-09T17:34:31.797Z,45
2024-05-09T17:49:57.699Z,43.5
2024-05-09T18:05:23.550Z,42
2024-05-09T18:20:33.992Z,47
2024-05-09T18:35:44.641Z,46
2024-05-09T18:51:02.814Z,50
2024-05-09T19:06:28.938Z,53
2024-05-09T19:21:39.047Z,55.5
2024-05-09T19:36:58.243Z,57.5
2024-05-09T19:52:16.361Z,58.5
2024-05-09T20:07:33.729Z,61.5
2024-05-09T20:23:08.767Z,64
2024-05-09T20:38:11.416Z,65
2024-05-09T20:53:44.114Z,66
2024-05-09T21:08:46.823Z,68
2024-05-09T21:24:20.246Z,69
2024-05-09T21:39:23.076Z,70.5
2024-05-09T21:54:49.588Z,71.5
2024-05-09T22:09:59.513Z,72.5
2024-05-09T22:25:25.559Z,73
2024-05-09T22:40:40.583Z,75
2024-05-09T23:10:46.476Z,75
2024-05-09T23:25:56.845Z,75
2024-05-09T23:41:23.947Z,76.5
2024-05-09T23:56:33.246Z,78.5
